Time;durP1;ratioP1;P1;durP2;ratioP2;P2;SDS_P1;SDS_P2;PMS_P1;PMS_P2;Temp;Humidity;BMP_temperature;BMP_pressure;BME280_temperature;BME280_humidity;BME280_pressure;Samples;Min_cycle;Max_cycle;Signal;HPM_P1;HPM_P2
2022/08/14 00:00:23;;;;;;;4.83;4.43;;;20.80;1.00;;;;;;5056522;28;20423;-72
2022/08/14 00:02:50;;;;;;;5.80;4.30;;;20.70;1.00;;;;;;5054496;28;20217;-72
2022/08/14 00:05:19;;;;;;;4.70;4.30;;;20.70;1.00;;;;;;5055573;28;20220;-72
2022/08/14 00:07:46;;;;;;;5.50;5.00;;;20.60;1.00;;;;;;5054979;28;20422;-72
2022/08/14 00:10:16;;;;;;;4.80;4.50;;;20.60;1.00;;;;;;5055214;28;20428;-66
2022/08/14 00:12:45;;;;;;;5.07;4.70;;;20.60;1.00;;;;;;5054415;28;20995;-66
2022/08/14 00:15:27;;;;;;;4.60;4.30;;;20.50;1.00;;;;;;5056035;28;20933;-66
2022/08/14 00:17:53;;;;;;;5.53;4.73;;;20.50;1.00;;;;;;5054953;28;20406;-67
2022/08/14 00:20:25;;;;;;;5.37;4.87;;;20.40;1.00;;;;;;5055837;28;20777;-72
2022/08/14 00:22:52;;;;;;;5.40;4.53;;;20.30;1.00;;;;;;5054500;28;20410;-66
2022/08/14 00:25:18;;;;;;;4.43;4.13;;;20.30;1.00;;;;;;5054131;28;20769;-71
2022/08/14 00:27:44;;;;;;;5.00;4.60;;;20.30;1.00;;;;;;5052732;28;20945;-66
2022/08/14 00:30:12;;;;;;;5.80;4.50;;;20.20;1.00;;;;;;5055037;28;20405;-66
2022/08/14 00:32:38;;;;;;;6.97;6.20;;;20.20;1.00;;;;;;5055458;28;20771;-72
2022/08/14 00:35:07;;;;;;;5.70;4.87;;;20.10;1.00;;;;;;5054187;28;20437;-67
2022/08/14 00:37:33;;;;;;;4.80;4.40;;;20.10;1.00;;;;;;5054694;28;20425;-66
2022/08/14 00:40:00;;;;;;;4.50;4.20;;;20.00;1.00;;;;;;5055393;28;20754;-67
2022/08/14 00:42:27;;;;;;;5.00;4.60;;;20.00;1.00;;;;;;5055019;28;20906;-66
2022/08/14 00:44:54;;;;;;;8.57;5.20;;;19.90;1.00;;;;;;5054858;28;20967;-66
2022/08/14 00:47:22;;;;;;;5.30;4.93;;;19.90;1.00;;;;;;5054699;28;20409;-66
2022/08/14 00:49:47;;;;;;;5.10;4.70;;;19.90;1.00;;;;;;5053879;28;20471;-66
2022/08/14 00:52:15;;;;;;;4.97;4.57;;;19.80;1.00;;;;;;5053733;28;20448;-66
2022/08/14 00:54:42;;;;;;;6.13;5.63;;;19.70;1.00;;;;;;5055057;28;20171;-66
2022/08/14 00:57:08;;;;;;;5.43;5.03;;;19.60;1.00;;;;;;5054430;28;20398;-66
2022/08/14 00:59:34;;;;;;;10.20;6.63;;;19.50;1.00;;;;;;5053707;28;20409;-73
2022/08/14 01:02:02;;;;;;;6.50;5.90;;;19.40;1.00;;;;;;5053667;28;20198;-66
2022/08/14 01:04:30;;;;;;;13.57;12.13;;;19.30;1.00;;;;;;5053019;28;20432;-72
2022/08/14 01:06:59;;;;;;;11.97;10.77;;;19.30;1.00;;;;;;5054237;28;20407;-72
2022/08/14 01:09:26;;;;;;;9.13;8.30;;;19.30;1.00;;;;;;5054687;28;20806;-72
2022/08/14 01:11:52;;;;;;;8.87;7.90;;;19.30;1.00;;;;;;5053893;28;20520;-72
2022/08/14 01:14:19;;;;;;;10.63;7.97;;;19.30;1.00;;;;;;5053570;28;20740;-72
2022/08/14 01:16:46;;;;;;;11.63;8.90;;;19.30;1.00;;;;;;5054027;28;20445;-66
2022/08/14 01:21:57;;;;;;;8.70;7.93;;;19.20;1.00;;;;;;5054519;28;20446;-72
2022/08/14 01:24:26;;;;;;;10.43;9.43;;;19.20;1.00;;;;;;5054423;28;20500;-66
2022/08/14 01:26:52;;;;;;;14.33;10.17;;;19.20;1.00;;;;;;5053669;28;20413;-72
2022/08/14 01:29:18;;;;;;;10.33;9.40;;;19.20;1.00;;;;;;5054435;28;20896;-66
2022/08/14 01:31:54;;;;;;;9.83;8.90;;;19.20;1.00;;;;;;5054240;28;20398;-72
2022/08/14 01:34:22;;;;;;;10.80;9.57;;;19.10;1.00;;;;;;5054295;28;20401;-67
2022/08/14 01:36:49;;;;;;;12.87;9.47;;;19.10;1.00;;;;;;5052806;28;20466;-71
2022/08/14 01:39:16;;;;;;;10.10;9.20;;;19.00;1.00;;;;;;5054060;28;20444;-72
2022/08/14 01:41:54;;;;;;;9.00;8.10;;;19.00;1.00;;;;;;5054253;28;20401;-66
2022/08/14 01:44:22;;;;;;;8.93;8.07;;;18.90;1.00;;;;;;5054197;28;20393;-72
2022/08/14 01:46:53;;;;;;;9.70;8.90;;;19.00;1.00;;;;;;5053362;28;20402;-66
2022/08/14 01:49:19;;;;;;;10.37;8.80;;;19.00;1.00;;;;;;5053756;28;20421;-66
2022/08/14 01:51:47;;;;;;;10.03;9.00;;;19.10;1.00;;;;;;5053808;28;20421;-66
2022/08/14 01:54:14;;;;;;;8.63;7.83;;;19.10;1.00;;;;;;5053688;28;20976;-70
2022/08/14 01:56:41;;;;;;;8.60;7.80;;;19.10;1.00;;;;;;5052778;28;20477;-68
2022/08/14 01:59:33;;;;;;;8.17;7.50;;;19.10;1.00;;;;;;5053414;28;20429;-72
2022/08/14 02:02:06;;;;;;;8.30;7.50;;;19.10;1.00;;;;;;5053933;28;20436;-66
2022/08/14 02:04:34;;;;;;;6.93;6.30;;;19.10;1.00;;;;;;5053749;28;20490;-65
2022/08/14 02:07:02;;;;;;;10.03;9.10;;;19.10;1.00;;;;;;5052928;28;20410;-72
2022/08/14 02:09:34;;;;;;;6.97;6.37;;;19.10;1.00;;;;;;5053720;28;20473;-72
2022/08/14 02:12:02;;;;;;;5.77;5.33;;;19.10;4.80;;;;;;5053842;28;20437;-72
2022/08/14 02:14:28;;;;;;;6.73;6.23;;;19.10;1.00;;;;;;5053313;28;20763;-72
2022/08/14 02:16:56;;;;;;;6.00;5.40;;;19.10;9.50;;;;;;5052889;28;20404;-72
2022/08/14 02:19:26;;;;;;;6.43;5.70;;;19.10;26.40;;;;;;5053545;28;20274;-71
2022/08/14 02:21:57;;;;;;;5.47;5.17;;;19.10;24.90;;;;;;5053729;28;20397;-66
2022/08/14 02:24:24;;;;;;;6.30;5.70;;;19.00;28.60;;;;;;5053449;28;20451;-72
2022/08/14 02:26:52;;;;;;;6.07;5.47;;;19.00;35.90;;;;;;5052824;28;20402;-72
2022/08/14 02:29:21;;;;;;;5.20;4.80;;;19.00;57.80;;;;;;5053492;28;20936;-72
2022/08/14 02:31:53;;;;;;;5.30;4.60;;;19.00;76.60;;;;;;5053414;28;20409;-72
2022/08/14 02:34:30;;;;;;;5.67;5.03;;;19.00;72.60;;;;;;5053083;28;20385;-66
2022/08/14 02:37:04;;;;;;;5.20;4.70;;;19.00;67.20;;;;;;5052610;28;20813;-67
2022/08/14 02:39:31;;;;;;;5.27;4.87;;;18.90;53.50;;;;;;5053326;28;20765;-72
2022/08/14 02:41:58;;;;;;;4.70;4.40;;;18.90;51.80;;;;;;5053400;28;20402;-72
2022/08/14 02:44:24;;;;;;;6.43;5.10;;;19.00;73.00;;;;;;5053240;28;20488;-66
2022/08/14 02:46:52;;;;;;;5.90;5.40;;;19.00;73.20;;;;;;5052672;28;20477;-72
2022/08/14 02:49:25;;;;;;;5.50;5.10;;;19.00;84.80;;;;;;5052829;28;20778;-66
2022/08/14 02:51:53;;;;;;;5.87;4.50;;;19.10;91.90;;;;;;5054527;28;20865;-66
2022/08/14 02:54:19;;;;;;;4.77;4.37;;;19.10;70.50;;;;;;5057413;28;20405;-66
2022/08/14 02:56:44;;;;;;;6.47;4.80;;;19.10;87.20;;;;;;5056791;28;20409;-67
2022/08/14 02:59:12;;;;;;;5.00;4.60;;;19.10;68.30;;;;;;5057192;28;20432;-70
2022/08/14 03:01:39;;;;;;;6.40;4.50;;;19.10;79.10;;;;;;5057156;28;20619;-72
2022/08/14 03:04:06;;;;;;;4.70;4.30;;;19.10;71.60;;;;;;5057177;28;20466;-72
2022/08/14 03:06:32;;;;;;;6.10;5.50;;;19.20;66.50;;;;;;5056670;28;20393;-66
2022/08/14 03:08:58;;;;;;;5.20;4.80;;;19.20;55.70;;;;;;5056906;28;20489;-72
2022/08/14 03:11:25;;;;;;;5.83;5.33;;;19.20;56.50;;;;;;5056440;28;20505;-66
2022/08/14 03:13:51;;;;;;;5.10;4.80;;;19.20;77.80;;;;;;5056839;28;21017;-66
2022/08/14 03:16:24;;;;;;;4.70;4.40;;;19.20;88.60;;;;;;5056578;28;20424;-72
2022/08/14 03:18:53;;;;;;;5.10;4.70;;;19.10;85.90;;;;;;5056942;28;20898;-65
2022/08/14 03:21:22;;;;;;;6.90;6.20;;;19.10;84.50;;;;;;5057068;28;20401;-72
2022/08/14 03:23:59;;;;;;;8.13;7.20;;;19.00;85.20;;;;;;5056856;28;20409;-67
2022/08/14 03:26:26;;;;;;;9.40;8.40;;;18.90;79.80;;;;;;5056145;28;20795;-72
2022/08/14 03:28:52;;;;;;;9.73;8.73;;;18.90;77.00;;;;;;5056311;28;20425;-66
2022/08/14 03:31:22;;;;;;;11.83;8.80;;;18.80;74.30;;;;;;5056792;28;20397;-66
2022/08/14 03:33:49;;;;;;;8.97;7.60;;;18.80;86.30;;;;;;5056544;28;20660;-66
2022/08/14 03:36:19;;;;;;;7.53;5.97;;;18.80;84.40;;;;;;5056032;28;20459;-65
2022/08/14 03:38:48;;;;;;;7.10;6.50;;;18.80;99.90;;;;;;5056634;28;20409;-72
2022/08/14 03:41:20;;;;;;;7.00;6.40;;;18.80;99.90;;;;;;5056663;28;20400;-72
2022/08/14 03:43:49;;;;;;;6.07;5.60;;;18.80;98.60;;;;;;5056398;28;20467;-66
2022/08/14 03:46:15;;;;;;;7.00;6.50;;;18.80;99.90;;;;;;5055574;28;20393;-66
2022/08/14 03:48:42;;;;;;;5.60;5.10;;;18.80;99.90;;;;;;5055934;28;20414;-66
2022/08/14 03:51:12;;;;;;;5.20;4.70;;;18.70;96.50;;;;;;5056328;28;20402;-72
2022/08/14 03:53:43;;;;;;;7.83;5.77;;;18.70;95.40;;;;;;5056090;28;20449;-71
2022/08/14 03:56:14;;;;;;;4.70;4.30;;;18.70;96.20;;;;;;5055584;28;20500;-72
2022/08/14 03:58:49;;;;;;;5.53;5.07;;;18.70;99.90;;;;;;5056199;28;20497;-65
2022/08/14 04:01:20;;;;;;;4.93;4.43;;;18.70;99.90;;;;;;5054835;28;20407;-72
2022/08/14 04:03:47;;;;;;;4.87;4.37;;;18.70;99.90;;;;;;5055727;28;20409;-67
2022/08/14 04:06:15;;;;;;;5.17;4.80;;;18.60;99.90;;;;;;5055039;28;20954;-73
2022/08/14 04:08:42;;;;;;;7.40;5.23;;;18.60;99.90;;;;;;5056039;28;20444;-66
2022/08/14 04:11:08;;;;;;;6.40;5.23;;;18.60;99.90;;;;;;5055899;28;20410;-66
2022/08/14 04:13:38;;;;;;;5.83;5.43;;;18.60;99.90;;;;;;5054573;28;20540;-72
2022/08/14 04:16:09;;;;;;;5.17;4.67;;;18.60;99.90;;;;;;5055207;28;20405;-71
2022/08/14 04:18:40;;;;;;;5.23;4.70;;;18.60;99.90;;;;;;5055824;28;20421;-66
2022/08/14 04:21:06;;;;;;;8.37;5.37;;;18.60;99.90;;;;;;5055487;28;20424;-72
2022/08/14 04:23:32;;;;;;;5.30;4.80;;;18.60;99.90;;;;;;5056138;28;20427;-72
2022/08/14 04:25:59;;;;;;;5.40;4.90;;;18.60;99.90;;;;;;5054972;28;20167;-71
2022/08/14 04:28:25;;;;;;;8.23;5.37;;;18.60;99.90;;;;;;5055371;28;20208;-72
2022/08/14 04:30:51;;;;;;;4.97;4.60;;;18.60;99.90;;;;;;5055853;28;20406;-66
2022/08/14 04:33:16;;;;;;;5.90;5.07;;;18.50;99.90;;;;;;5054260;28;20449;-66
2022/08/14 04:35:42;;;;;;;6.03;5.47;;;18.60;99.90;;;;;;5055607;28;20760;-72
2022/08/14 04:43:39;;;;;;;5.87;5.37;;;18.50;99.90;;;;;;5055386;28;20813;-69
2022/08/14 04:46:11;;;;;;;5.90;5.47;;;18.50;99.90;;;;;;5054625;28;20398;-69
2022/08/14 04:48:38;;;;;;;4.27;3.97;;;18.50;99.90;;;;;;5055416;28;20424;-69
2022/08/14 04:51:06;;;;;;;6.13;4.70;;;18.50;99.90;;;;;;5055825;28;20401;-69
2022/08/14 04:53:33;;;;;;;4.40;4.10;;;18.50;99.90;;;;;;5055138;28;20449;-66
2022/08/14 04:55:59;;;;;;;5.77;4.70;;;18.50;99.90;;;;;;5054795;28;20452;-67
2022/08/14 04:58:28;;;;;;;5.17;4.23;;;18.50;99.90;;;;;;5054430;28;20425;-72
2022/08/14 05:00:56;;;;;;;7.60;5.37;;;18.60;99.90;;;;;;5055157;28;20400;-65
2022/08/14 05:03:27;;;;;;;4.30;4.00;;;18.60;99.90;;;;;;5055472;28;20398;-65
2022/08/14 05:05:55;;;;;;;4.70;4.40;;;18.70;99.90;;;;;;5054647;28;20432;-66
2022/08/14 05:08:22;;;;;;;5.83;4.83;;;18.80;99.90;;;;;;5054066;28;20417;-71
2022/08/14 05:10:54;;;;;;;4.00;3.80;;;18.80;99.90;;;;;;5055127;28;20468;-66
2022/08/14 05:13:26;;;;;;;5.83;4.63;;;18.80;99.90;;;;;;5054939;28;20480;-72
2022/08/14 05:15:53;;;;;;;6.10;4.77;;;18.90;99.90;;;;;;5054503;28;20429;-70
2022/08/14 05:18:22;;;;;;;6.57;4.27;;;18.90;99.90;;;;;;5053717;28;20496;-65
2022/08/14 05:20:54;;;;;;;4.30;4.00;;;19.00;99.90;;;;;;5054385;28;20906;-65
2022/08/14 05:23:23;;;;;;;7.80;4.40;;;19.00;99.90;;;;;;5055053;28;20433;-72
2022/08/14 05:26:02;;;;;;;5.13;4.67;;;19.10;99.90;;;;;;5054774;28;20405;-66
2022/08/14 05:28:30;;;;;;;3.90;3.60;;;19.10;99.90;;;;;;5054332;28;20420;-67
2022/08/14 05:31:02;;;;;;;3.90;3.57;;;19.30;99.90;;;;;;5054491;28;20405;-66
2022/08/14 05:33:30;;;;;;;9.10;4.27;;;19.30;99.90;;;;;;5054509;28;20782;-71
2022/08/14 05:36:00;;;;;;;4.20;4.00;;;19.40;99.90;;;;;;5054031;28;20397;-72
2022/08/14 05:38:35;;;;;;;4.10;3.80;;;19.40;99.90;;;;;;5054168;28;20417;-67
2022/08/14 05:41:05;;;;;;;4.33;4.00;;;19.50;99.90;;;;;;5054438;28;20917;-73
2022/08/14 05:43:30;;;;;;;3.80;3.50;;;19.60;99.90;;;;;;5054223;28;20484;-71
2022/08/14 05:45:57;;;;;;;4.43;3.80;;;19.70;99.90;;;;;;5053684;28;20480;-73
2022/08/14 05:48:24;;;;;;;3.90;3.60;;;19.80;99.90;;;;;;5053299;28;20187;-73
2022/08/14 05:50:53;;;;;;;3.90;3.60;;;19.80;99.90;;;;;;5054030;28;20480;-71
2022/08/14 05:53:20;;;;;;;7.40;3.90;;;19.80;99.90;;;;;;5053607;28;20451;-71
2022/08/14 05:55:47;;;;;;;3.87;3.57;;;19.90;99.90;;;;;;5054273;28;20896;-71
2022/08/14 05:58:12;;;;;;;4.00;3.60;;;20.00;99.90;;;;;;5053302;28;20504;-73
2022/08/14 06:00:40;;;;;;;3.83;3.50;;;20.10;99.90;;;;;;5053887;28;20472;-71
2022/08/14 06:03:18;;;;;;;4.47;4.10;;;20.10;99.90;;;;;;5053799;28;20182;-70
2022/08/14 06:05:46;;;;;;;3.50;3.20;;;20.20;99.90;;;;;;5053880;28;20409;-71
2022/08/14 06:08:21;;;;;;;3.50;3.30;;;20.30;99.90;;;;;;5053233;28;20425;-71
2022/08/14 06:10:47;;;;;;;9.00;3.73;;;20.40;99.90;;;;;;5053557;28;20495;-70
2022/08/14 06:13:14;;;;;;;8.40;4.40;;;20.40;99.90;;;;;;5051925;28;20457;-71
2022/08/14 06:15:40;;;;;;;6.40;3.97;;;20.50;99.90;;;;;;5053935;28;20406;-72
2022/08/14 06:18:06;;;;;;;4.30;3.27;;;20.60;99.90;;;;;;5051617;28;20427;-70
2022/08/14 06:20:32;;;;;;;7.00;3.07;;;20.70;99.90;;;;;;5053427;28;20444;-70
2022/08/14 06:22:58;;;;;;;5.10;3.20;;;20.70;99.90;;;;;;5052227;28;20441;-73
2022/08/14 06:25:25;;;;;;;3.33;3.00;;;20.80;99.90;;;;;;5053381;28;20174;-73
2022/08/14 06:27:51;;;;;;;3.10;2.80;;;20.90;99.90;;;;;;5051307;28;20428;-73
2022/08/14 06:30:20;;;;;;;5.07;3.40;;;21.00;99.90;;;;;;5053252;28;20405;-72
2022/08/14 06:32:46;;;;;;;3.60;3.13;;;21.20;99.90;;;;;;5053251;28;20440;-72
2022/08/14 06:35:13;;;;;;;11.50;4.07;;;21.30;99.90;;;;;;5053508;28;20443;-71
2022/08/14 06:37:52;;;;;;;9.13;3.30;;;21.40;99.90;;;;;;5052585;28;20497;-73
2022/08/14 06:40:22;;;;;;;3.73;3.30;;;21.50;99.90;;;;;;5053357;28;20416;-71
2022/08/14 06:42:48;;;;;;;3.60;3.30;;;21.60;99.90;;;;;;5053336;28;20393;-72
2022/08/14 06:45:15;;;;;;;7.67;3.10;;;21.60;99.90;;;;;;5053265;28;20480;-71
2022/08/14 06:47:42;;;;;;;5.80;3.47;;;21.60;99.90;;;;;;5051390;28;20432;-71
2022/08/14 06:50:11;;;;;;;6.10;3.23;;;21.70;99.90;;;;;;5052847;28;20748;-71
2022/08/14 06:52:38;;;;;;;3.33;3.13;;;21.80;99.90;;;;;;5053278;28;20447;-70
2022/08/14 06:55:06;;;;;;;10.33;3.60;;;21.80;99.90;;;;;;5053267;28;20767;-71
2022/08/14 06:57:37;;;;;;;3.40;3.10;;;21.90;99.90;;;;;;5052446;28;20417;-73
2022/08/14 07:00:23;;;;;;;4.93;3.10;;;21.90;99.90;;;;;;5053290;28;20536;-73
2022/08/14 07:05:44;;;;;;;4.60;3.17;;;22.20;99.90;;;;;;5052592;28;20400;-74
2022/08/14 07:08:28;;;;;;;6.73;3.50;;;22.30;99.90;;;;;;5052398;28;20431;-66
2022/08/14 07:10:58;;;;;;;3.43;3.10;;;22.40;99.90;;;;;;5053449;28;20424;-72
2022/08/14 07:13:25;;;;;;;5.23;3.30;;;22.50;99.90;;;;;;5053100;28;20440;-65
2022/08/14 07:15:54;;;;;;;7.00;3.90;;;22.50;99.90;;;;;;5052854;28;20755;-66
2022/08/14 07:18:30;;;;;;;3.07;2.87;;;22.60;99.90;;;;;;5051402;28;20949;-73
2022/08/14 07:20:59;;;;;;;3.40;3.20;;;22.60;99.90;;;;;;5052636;28;20412;-64
2022/08/14 07:23:25;;;;;;;3.53;3.33;;;22.50;99.90;;;;;;5051335;28;20413;-71
2022/08/14 07:25:53;;;;;;;5.33;3.40;;;22.60;99.90;;;;;;5052837;28;20401;-73
2022/08/14 07:28:22;;;;;;;9.30;4.47;;;22.70;99.90;;;;;;5051078;28;20980;-65
2022/08/14 07:30:49;;;;;;;4.60;3.43;;;22.80;99.90;;;;;;5052979;28;20817;-72
2022/08/14 07:33:16;;;;;;;3.60;3.20;;;22.80;99.90;;;;;;5052825;28;20528;-75
2022/08/14 07:35:41;;;;;;;4.73;3.10;;;22.90;99.90;;;;;;5051838;28;20432;-65
2022/08/14 07:38:07;;;;;;;5.60;2.93;;;23.00;99.90;;;;;;5053524;28;20426;-68
2022/08/14 07:40:34;;;;;;;3.03;2.80;;;23.00;99.90;;;;;;5056452;28;20194;-73
2022/08/14 07:43:00;;;;;;;5.00;3.10;;;23.00;99.90;;;;;;5055062;28;20897;-73
2022/08/14 07:45:27;;;;;;;4.90;3.57;;;23.10;99.90;;;;;;5056396;28;20424;-73
2022/08/14 07:47:55;;;;;;;9.30;3.67;;;23.10;99.70;;;;;;5055716;28;20640;-73
2022/08/14 07:50:21;;;;;;;5.20;3.20;;;23.20;99.90;;;;;;5054138;28;20414;-67
2022/08/14 07:52:48;;;;;;;9.50;3.57;;;23.40;99.90;;;;;;5056261;28;20195;-67
2022/08/14 07:55:16;;;;;;;4.77;3.43;;;23.50;97.30;;;;;;5056195;28;20424;-68
2022/08/14 07:57:43;;;;;;;6.33;3.40;;;23.60;97.30;;;;;;5054992;28;20861;-74
2022/08/14 08:00:13;;;;;;;6.37;3.20;;;23.80;95.20;;;;;;5054928;28;20413;-74
2022/08/14 08:02:41;;;;;;;3.57;3.27;;;23.90;96.00;;;;;;5056138;28;20412;-75
2022/08/14 08:05:09;;;;;;;6.53;2.70;;;24.00;85.30;;;;;;5056022;28;20871;-76
2022/08/14 08:07:35;;;;;;;3.93;3.20;;;24.00;97.60;;;;;;5055281;28;20566;-68
2022/08/14 08:12:55;;;;;;;4.83;3.03;;;24.00;94.90;;;;;;5055819;28;20448;-68
2022/08/14 08:15:23;;;;;;;3.20;2.90;;;24.00;87.80;;;;;;5055568;28;20774;-74
2022/08/14 08:17:50;;;;;;;3.57;3.27;;;23.90;89.00;;;;;;5054966;28;20791;-68
2022/08/14 08:20:18;;;;;;;6.23;3.60;;;24.00;97.20;;;;;;5055400;28;20409;-76
2022/08/14 08:22:45;;;;;;;5.10;3.10;;;24.10;97.00;;;;;;5054497;28;20417;-67
2022/08/14 08:25:12;;;;;;;5.37;3.13;;;24.20;96.80;;;;;;5054445;28;20504;-67
2022/08/14 08:27:38;;;;;;;3.80;3.33;;;24.30;76.50;;;;;;5054908;28;20478;-67
2022/08/14 08:30:09;;;;;;;5.70;3.50;;;24.40;70.90;;;;;;5055598;28;20500;-75
2022/08/14 08:32:41;;;;;;;3.80;3.50;;;24.30;74.90;;;;;;5055716;28;20848;-76
2022/08/14 08:35:40;;;;;;;4.00;3.70;;;24.20;63.50;;;;;;5053933;28;20496;-68
2022/08/14 08:38:26;;;;;;;4.63;3.70;;;24.20;85.10;;;;;;5042271;28;20798;-77
2022/08/14 08:40:56;;;;;;;3.07;2.87;;;24.30;80.60;;;;;;5055434;28;20409;-76
2022/08/14 08:43:32;;;;;;;4.90;3.90;;;24.30;73.30;;;;;;5055550;28;20411;-67
2022/08/14 08:46:07;;;;;;;11.00;4.93;;;24.40;81.20;;;;;;5053857;28;20420;-76
2022/08/14 08:48:53;;;;;;;10.53;3.73;;;24.50;64.70;;;;;;5054326;28;20518;-77
2022/08/14 08:51:22;;;;;;;5.50;3.80;;;24.50;93.70;;;;;;5055152;28;20409;-68
2022/08/14 08:53:57;;;;;;;5.20;3.60;;;24.60;83.90;;;;;;5051129;28;20527;-76
2022/08/14 08:56:45;;;;;;;4.77;4.33;;;24.70;78.20;;;;;;5033098;28;20425;-77
2022/08/14 08:59:23;;;;;;;4.10;3.80;;;24.70;40.30;;;;;;5034872;28;20469;-68
2022/08/14 09:01:59;;;;;;;7.63;4.43;;;24.70;43.60;;;;;;5035686;28;20426;-77
2022/08/14 09:04:30;;;;;;;4.27;3.87;;;24.70;14.50;;;;;;5034756;28;20432;-76
2022/08/14 09:06:56;;;;;;;4.47;3.80;;;24.70;1.00;;;;;;5033337;28;20414;-68
2022/08/14 09:09:25;;;;;;;3.27;3.07;;;24.70;3.40;;;;;;5043737;28;20456;-68
2022/08/14 09:11:55;;;;;;;6.90;4.20;;;24.70;10.10;;;;;;5054561;28;20406;-76
2022/08/14 09:14:26;;;;;;;5.60;4.00;;;24.70;2.10;;;;;;5044605;28;20425;-76
2022/08/14 09:16:52;;;;;;;9.50;4.27;;;24.70;9.70;;;;;;5033985;28;20493;-75
2022/08/14 09:19:19;;;;;;;6.43;4.40;;;24.70;9.60;;;;;;5049479;28;20449;-75
2022/08/14 09:21:46;;;;;;;4.43;4.10;;;24.70;20.00;;;;;;5054646;28;20489;-76
2022/08/14 09:24:13;;;;;;;10.40;4.90;;;24.60;3.50;;;;;;5038970;28;20910;-77
2022/08/14 09:26:40;;;;;;;4.80;4.40;;;24.80;6.80;;;;;;5033660;28;20387;-77
2022/08/14 09:29:07;;;;;;;4.53;4.20;;;24.90;14.30;;;;;;5044722;28;20452;-68
2022/08/14 09:31:34;;;;;;;4.77;4.20;;;25.00;1.00;;;;;;5034313;28;20387;-68
2022/08/14 09:34:06;;;;;;;7.97;5.10;;;25.00;1.00;;;;;;5032891;28;20457;-68
2022/08/14 09:37:01;;;;;;;5.17;3.93;;;25.00;1.00;;;;;;5033563;28;20402;-77
2022/08/14 09:39:56;;;;;;;5.07;4.67;;;25.10;1.00;;;;;;5034464;28;20450;-68
2022/08/14 09:42:33;;;;;;;7.37;4.70;;;25.10;1.00;;;;;;5033466;28;20941;-68
2022/08/14 09:45:19;;;;;;;6.07;4.33;;;25.20;1.00;;;;;;5033190;28;20935;-69
2022/08/14 09:47:53;;;;;;;7.20;5.60;;;25.40;1.00;;;;;;5032914;28;20453;-69
2022/08/14 09:50:25;;;;;;;4.93;4.53;;;25.80;1.00;;;;;;5034264;28;20910;-69
2022/08/14 09:53:03;;;;;;;8.80;4.30;;;25.90;1.00;;;;;;5032866;28;20450;-68
2022/08/14 09:55:34;;;;;;;5.50;4.77;;;26.00;1.00;;;;;;5032820;28;20429;-75
2022/08/14 09:58:40;;;;;;;4.10;3.80;;;26.10;1.00;;;;;;5036619;28;20830;-70
2022/08/14 10:01:08;;;;;;;7.63;5.77;;;26.10;1.00;;;;;;5032757;28;20414;-75
2022/08/14 10:03:36;;;;;;;5.07;4.60;;;26.10;1.00;;;;;;5033180;28;20465;-76
2022/08/14 10:06:06;;;;;;;6.10;4.80;;;26.00;1.00;;;;;;5032796;28;20415;-69
2022/08/14 10:08:50;;;;;;;8.00;5.87;;;25.90;1.00;;;;;;5038873;28;20461;-68
2022/08/14 10:11:22;;;;;;;5.60;5.10;;;25.90;1.00;;;;;;5053771;28;20916;-68
2022/08/14 10:13:53;;;;;;;6.70;6.00;;;25.90;1.00;;;;;;5044750;28;20471;-68
2022/08/14 10:16:27;;;;;;;6.63;5.40;;;25.90;1.00;;;;;;5032868;28;20548;-75
2022/08/14 10:19:05;;;;;;;7.90;5.97;;;26.00;1.00;;;;;;5048969;28;20424;-75
2022/08/14 10:21:31;;;;;;;8.80;5.80;;;26.10;1.00;;;;;;5053613;28;20401;-76
2022/08/14 10:23:57;;;;;;;11.73;5.30;;;26.20;1.00;;;;;;5036247;28;20445;-67
2022/08/14 10:26:24;;;;;;;7.10;5.83;;;26.30;1.00;;;;;;5032513;28;20398;-76
2022/08/14 10:28:52;;;;;;;6.00;5.50;;;26.40;1.00;;;;;;5032970;28;20202;-68
2022/08/14 10:31:22;;;;;;;8.10;6.60;;;26.40;1.00;;;;;;5032353;28;20417;-67
2022/08/14 10:34:09;;;;;;;7.47;5.10;;;26.30;1.00;;;;;;5047645;28;20453;-68
2022/08/14 10:36:44;;;;;;;6.17;5.67;;;26.30;1.00;;;;;;5050813;28;20417;-68
2022/08/14 10:39:16;;;;;;;7.00;6.40;;;26.30;1.00;;;;;;5052201;28;20440;-76
2022/08/14 10:41:44;;;;;;;6.70;6.20;;;26.10;1.00;;;;;;5050646;28;20424;-67
2022/08/14 10:44:16;;;;;;;9.53;6.60;;;26.10;1.00;;;;;;5032411;28;20763;-67
2022/08/14 10:47:06;;;;;;;6.53;6.03;;;26.00;1.00;;;;;;5032749;28;20464;-67
2022/08/14 10:49:33;;;;;;;7.23;6.63;;;26.10;1.00;;;;;;5053439;28;20898;-74
2022/08/14 10:52:07;;;;;;;6.57;6.03;;;26.00;1.00;;;;;;5048938;28;20426;-77
2022/08/14 10:54:34;;;;;;;7.50;6.70;;;26.00;1.00;;;;;;5033440;28;20433;-78
2022/08/14 10:57:30;;;;;;;8.47;6.17;;;25.90;1.00;;;;;;5034803;28;20413;-67
2022/08/14 10:59:58;;;;;;;7.33;6.60;;;25.90;1.00;;;;;;5052544;28;20433;-67
2022/08/14 11:02:32;;;;;;;8.33;7.70;;;26.00;1.00;;;;;;5051726;28;20520;-76
2022/08/14 11:05:14;;;;;;;9.50;7.23;;;26.00;1.00;;;;;;5053059;28;20405;-68
2022/08/14 11:08:00;;;;;;;7.97;6.97;;;26.10;1.00;;;;;;5043354;28;20453;-75
2022/08/14 11:10:48;;;;;;;7.23;6.73;;;26.20;1.00;;;;;;5032990;28;20441;-67
2022/08/14 11:13:20;;;;;;;7.30;6.80;;;26.20;1.00;;;;;;5045111;28;20548;-75
2022/08/14 11:15:47;;;;;;;7.10;6.43;;;26.20;1.00;;;;;;5056546;28;20500;-77
2022/08/14 11:18:13;;;;;;;8.00;6.53;;;26.20;1.00;;;;;;5038158;28;20491;-75
2022/08/14 11:20:48;;;;;;;7.87;6.83;;;26.20;1.00;;;;;;5035897;28;20414;-75
2022/08/14 11:23:16;;;;;;;11.40;6.60;;;26.10;1.00;;;;;;5053932;28;20426;-69
2022/08/14 11:25:48;;;;;;;8.43;7.70;;;26.00;1.00;;;;;;5056534;28;20397;-67
2022/08/14 11:28:15;;;;;;;8.40;7.70;;;25.90;1.00;;;;;;5038864;28;20445;-68
2022/08/14 11:30:45;;;;;;;8.00;7.40;;;26.00;1.00;;;;;;5036588;28;20401;-68
2022/08/14 11:33:11;;;;;;;7.33;6.63;;;26.00;1.00;;;;;;5052144;28;20849;-68
2022/08/14 11:42:38;;;;;;;8.60;6.83;;;26.40;1.00;;;;;;5044631;28;20439;-76
2022/08/14 11:45:05;;;;;;;8.63;7.00;;;26.50;1.00;;;;;;5055011;28;20401;-68
2022/08/14 11:47:58;;;;;;;7.40;6.30;;;26.50;1.00;;;;;;5045060;28;20491;-75
2022/08/14 11:50:30;;;;;;;8.70;7.20;;;26.50;1.00;;;;;;5035212;28;20413;-75
2022/08/14 11:53:19;;;;;;;12.63;10.13;;;26.50;1.00;;;;;;5047030;28;20467;-68
2022/08/14 11:55:44;;;;;;;7.30;6.63;;;26.60;1.00;;;;;;5056069;28;20443;-74
2022/08/14 11:58:11;;;;;;;7.80;6.50;;;26.60;1.00;;;;;;5042163;28;20953;-76
2022/08/14 12:00:48;;;;;;;8.30;5.87;;;26.50;1.00;;;;;;5035303;28;20172;-68
2022/08/14 12:03:14;;;;;;;6.07;5.43;;;26.50;1.00;;;;;;5047668;28;20420;-68
2022/08/14 12:05:41;;;;;;;6.20;5.70;;;26.50;1.00;;;;;;5054852;28;20778;-76
2022/08/14 12:08:08;;;;;;;8.00;5.93;;;26.50;1.00;;;;;;5042102;28;20204;-75
2022/08/14 12:10:39;;;;;;;5.70;5.30;;;26.50;1.00;;;;;;5036060;28;20426;-76
2022/08/14 12:13:17;;;;;;;6.80;5.00;;;26.50;1.00;;;;;;5035380;28;20446;-75
2022/08/14 12:15:45;;;;;;;5.37;5.07;;;26.50;1.00;;;;;;5035828;28;20410;-68
2022/08/14 12:18:12;;;;;;;6.20;5.57;;;26.60;1.00;;;;;;5045858;28;20957;-68
2022/08/14 12:20:43;;;;;;;7.50;5.33;;;26.60;1.00;;;;;;5055868;28;20393;-68
2022/08/14 12:23:23;;;;;;;6.80;6.20;;;26.70;1.00;;;;;;5045219;28;20422;-67
2022/08/14 12:25:49;;;;;;;5.63;5.13;;;26.70;1.00;;;;;;5034560;28;20398;-75
2022/08/14 12:28:15;;;;;;;7.47;6.73;;;26.70;1.00;;;;;;5039236;28;20814;-75
2022/08/14 12:30:47;;;;;;;8.80;5.50;;;26.70;1.00;;;;;;5040007;28;20410;-67
2022/08/14 12:33:24;;;;;;;6.07;5.57;;;26.70;1.00;;;;;;5035595;28;20183;-76
2022/08/14 12:35:51;;;;;;;5.77;5.37;;;26.80;1.00;;;;;;5043601;28;20409;-75
2022/08/14 12:38:16;;;;;;;7.03;5.10;;;26.80;1.00;;;;;;5054641;28;20417;-67
2022/08/14 12:40:53;;;;;;;7.70;6.10;;;26.80;1.00;;;;;;5047008;28;20417;-78
2022/08/14 12:43:20;;;;;;;6.27;5.57;;;26.70;1.00;;;;;;5035688;28;20175;-67
2022/08/14 12:45:53;;;;;;;5.97;5.57;;;26.70;1.00;;;;;;5042696;28;20417;-75
2022/08/14 12:48:20;;;;;;;8.43;6.13;;;26.70;1.00;;;;;;5053094;28;20440;-66
2022/08/14 12:50:50;;;;;;;6.63;5.63;;;26.70;1.00;;;;;;5046047;28;20415;-67
2022/08/14 12:53:17;;;;;;;6.50;6.00;;;26.80;1.00;;;;;;5033952;28;20450;-74
2022/08/14 12:55:44;;;;;;;6.33;5.83;;;26.80;1.00;;;;;;5040543;28;20413;-74
2022/08/14 12:58:11;;;;;;;6.40;5.90;;;26.80;1.00;;;;;;5054379;28;20487;-67
2022/08/14 13:00:46;;;;;;;6.30;5.33;;;26.80;1.00;;;;;;5049734;28;20517;-66
2022/08/14 13:03:24;;;;;;;8.50;7.67;;;26.90;1.00;;;;;;5034688;28;20449;-76
2022/08/14 13:05:51;;;;;;;6.73;6.30;;;27.00;1.00;;;;;;5041259;28;20906;-76
2022/08/14 13:08:17;;;;;;;7.23;6.20;;;27.00;1.00;;;;;;5037110;28;20449;-78
2022/08/14 13:10:44;;;;;;;5.43;5.03;;;27.10;1.00;;;;;;5035082;28;20783;-68
2022/08/14 13:13:11;;;;;;;5.63;5.33;;;27.10;1.00;;;;;;5034802;28;20187;-70
2022/08/14 13:15:39;;;;;;;7.07;5.97;;;27.20;1.00;;;;;;5040591;28;20527;-79
2022/08/14 13:18:04;;;;;;;6.40;5.60;;;27.20;1.00;;;;;;5033743;28;20413;-68
2022/08/14 13:20:30;;;;;;;9.37;5.37;;;27.30;1.00;;;;;;5033544;28;20799;-68
2022/08/14 13:22:56;;;;;;;5.60;5.20;;;27.30;1.00;;;;;;5035134;28;20285;-78
2022/08/14 13:25:26;;;;;;;6.60;5.70;;;27.30;1.00;;;;;;5034470;28;20179;-67